createdAt,value
2018-02-02T00:00:50.227Z,989.05
2018-02-02T00:02:00.031Z,989.03
2018-02-02T00:03:09.839Z,989
2018-02-02T00:04:19.700Z,989
2018-02-02T00:05:29.761Z,989.02
2018-02-02T00:06:39.809Z,989.01
2018-02-02T00:07:49.866Z,989.04
2018-02-02T00:08:59.663Z,988.99
2018-02-02T00:10:09.800Z,988.99
2018-02-02T00:11:19.879Z,988.97
2018-02-02T00:12:29.930Z,988.95
2018-02-02T00:13:40.676Z,988.91
2018-02-02T00:14:50.500Z,988.94
2018-02-02T00:16:00.553Z,988.97
2018-02-02T00:17:10.630Z,989.01
2018-02-02T00:18:20.672Z,989.01
2018-02-02T00:19:30.512Z,989
2018-02-02T00:20:40.565Z,989.02
2018-02-02T00:21:50.700Z,988.99
2018-02-02T00:23:00.762Z,988.96
2018-02-02T00:24:10.043Z,988.98
2018-02-02T00:25:20.112Z,988.97
2018-02-02T00:26:30.173Z,988.96
2018-02-02T00:27:40.266Z,988.93
2018-02-02T00:28:50.306Z,988.95
2018-02-02T00:30:00.367Z,989.01
2018-02-02T00:31:10.439Z,988.94
2018-02-02T00:32:20.484Z,988.99
2018-02-02T00:33:30.545Z,988.94
2018-02-02T00:34:40.350Z,988.98
2018-02-02T00:35:50.156Z,988.99
2018-02-02T00:36:59.953Z,988.94
2018-02-02T00:38:09.763Z,988.92
2018-02-02T00:39:19.858Z,988.94
2018-02-02T00:40:29.903Z,988.94
2018-02-02T00:41:39.697Z,988.91
2018-02-02T00:42:49.479Z,988.88
2018-02-02T00:43:59.538Z,988.87
2018-02-02T00:45:09.596Z,988.93
2018-02-02T00:46:19.641Z,988.93
2018-02-02T00:47:29.685Z,988.9
2018-02-02T00:48:39.486Z,988.9
2018-02-02T00:49:49.536Z,988.91
2018-02-02T00:50:59.573Z,988.94
2018-02-02T00:52:09.874Z,988.95
2018-02-02T00:53:19.949Z,988.93
2018-02-02T00:54:29.997Z,988.91
2018-02-02T00:55:40.083Z,988.92
2018-02-02T00:56:49.907Z,988.95
2018-02-02T00:57:59.741Z,988.93
2018-02-02T00:59:09.802Z,988.9
2018-02-02T01:00:19.851Z,988.89
2018-02-02T01:01:29.381Z,988.88
2018-02-02T01:02:39.449Z,988.91
2018-02-02T01:03:49.501Z,988.9
2018-02-02T01:04:59.552Z,988.93
2018-02-02T01:06:09.614Z,988.98
2018-02-02T01:07:19.406Z,988.97
2018-02-02T01:08:29.497Z,988.94
2018-02-02T01:09:39.576Z,988.95
2018-02-02T01:10:49.622Z,988.93
2018-02-02T01:11:59.412Z,988.91
2018-02-02T01:13:09.473Z,988.89
2018-02-02T01:14:19.569Z,988.9
2018-02-02T01:15:29.638Z,988.88
2018-02-02T01:16:39.685Z,988.91
2018-02-02T01:17:49.232Z,988.89
2018-02-02T01:18:59.329Z,988.9
2018-02-02T01:20:09.432Z,988.9
2018-02-02T01:21:19.211Z,988.97
2018-02-02T01:22:29.264Z,988.95
2018-02-02T01:23:39.309Z,988.96
2018-02-02T01:24:49.366Z,988.95
2018-02-02T01:25:59.435Z,988.94
2018-02-02T01:27:09.477Z,988.95
2018-02-02T01:28:19.523Z,988.96
2018-02-02T01:29:29.555Z,988.94
2018-02-02T01:30:39.355Z,988.93
2018-02-02T01:31:49.402Z,988.93
2018-02-02T01:32:59.458Z,988.93
2018-02-02T01:34:09.516Z,988.85
2018-02-02T01:35:19.555Z,988.86
2018-02-02T01:36:29.590Z,988.86
2018-02-02T01:37:39.633Z,988.85
2018-02-02T01:38:49.693Z,988.81
2018-02-02T01:39:59.740Z,988.8
2018-02-02T01:41:09.799Z,988.82
2018-02-02T01:42:19.858Z,988.86
2018-02-02T01:43:29.899Z,988.83
2018-02-02T01:44:39.956Z,988.83
2018-02-02T01:45:49.749Z,988.82
2018-02-02T01:46:59.795Z,988.83
2018-02-02T01:48:09.840Z,988.88
2018-02-02T01:49:19.936Z,988.86
2018-02-02T01:50:29.995Z,988.81
2018-02-02T01:51:40.045Z,988.81
2018-02-02T01:52:50.085Z,988.82
2018-02-02T01:54:00.147Z,988.8
2018-02-02T01:55:10.203Z,988.8
2018-02-02T01:56:20.265Z,988.76
2018-02-02T01:57:30.315Z,988.73
2018-02-02T01:58:40.554Z,988.73
2018-02-02T01:59:50.331Z,988.7
2018-02-02T02:01:00.175Z,988.73
2018-02-02T02:02:10.235Z,988.74
2018-02-02T02:03:20.289Z,988.74
2018-02-02T02:04:30.356Z,988.71
2018-02-02T02:05:40.401Z,988.72
2018-02-02T02:06:50.192Z,988.73
2018-02-02T02:08:00.218Z,988.72
2018-02-02T02:09:10.005Z,988.73
2018-02-02T02:10:20.048Z,988.71
2018-02-02T02:11:30.092Z,988.69
2018-02-02T02:12:40.191Z,988.74
2018-02-02T02:13:50.249Z,988.71
2018-02-02T02:15:00.050Z,988.72
2018-02-02T02:16:09.863Z,988.73
2018-02-02T02:17:19.907Z,988.71
2018-02-02T02:18:29.948Z,988.68
2018-02-02T02:19:39.995Z,988.7
2018-02-02T02:20:50.036Z,988.71
2018-02-02T02:22:00.130Z,988.64
2018-02-02T02:23:10.178Z,988.63
2018-02-02T02:24:20.272Z,988.62
2018-02-02T02:25:30.071Z,988.61
2018-02-02T02:26:40.110Z,988.6
2018-02-02T02:27:49.908Z,988.61
2018-02-02T02:28:59.953Z,988.6
2018-02-02T02:30:09.755Z,988.62
2018-02-02T02:31:19.815Z,988.62
2018-02-02T02:32:29.602Z,988.65
2018-02-02T02:33:39.398Z,988.67
2018-02-02T02:34:49.443Z,988.71
2018-02-02T02:35:59.170Z,988.7
2018-02-02T02:37:09.214Z,988.72
2018-02-02T02:38:19.279Z,988.78
2018-02-02T02:39:29.327Z,988.76
2018-02-02T02:40:39.377Z,988.77
2018-02-02T02:41:49.417Z,988.77
2018-02-02T02:43:00.629Z,988.77
2018-02-02T02:44:10.670Z,988.75
2018-02-02T02:45:20.714Z,988.73
2018-02-02T02:46:30.527Z,988.72
2018-02-02T02:47:40.590Z,988.76
2018-02-02T02:48:50.639Z,988.74
2018-02-02T02:50:00.162Z,988.73
2018-02-02T02:51:10.240Z,988.76
2018-02-02T02:52:20.036Z,988.81
2018-02-02T02:53:29.828Z,988.81
2018-02-02T02:54:39.882Z,988.81
2018-02-02T02:55:49.933Z,988.78
2018-02-02T02:56:59.467Z,988.77
2018-02-02T02:58:09.239Z,988.79
2018-02-02T02:59:19.095Z,988.79
2018-02-02T03:00:29.152Z,988.76
2018-02-02T03:01:38.949Z,988.75
2018-02-02T03:02:48.991Z,988.76
2018-02-02T03:34:40.476Z,989.15
2018-02-02T03:35:50.274Z,989.13
2018-02-02T03:37:00.321Z,989.14
2018-02-02T03:38:10.346Z,989.22
2018-02-02T03:39:20.125Z,989.2
2018-02-02T03:40:29.439Z,989.15
2018-02-02T03:41:39.223Z,989.16
2018-02-02T03:42:49.261Z,989.17
2018-02-02T03:43:59.362Z,989.15
2018-02-02T03:45:09.403Z,989.19
2018-02-02T03:46:19.237Z,989.2
2018-02-02T03:47:29.278Z,989.19
2018-02-02T03:48:39.049Z,989.17
2018-02-02T03:49:48.833Z,989.17
2018-02-02T03:50:58.953Z,989.2
2018-02-02T03:52:08.987Z,989.21
2018-02-02T03:53:18.769Z,989.24
2018-02-02T03:54:28.816Z,989.25
2018-02-02T03:55:38.866Z,989.23
2018-02-02T03:56:48.909Z,989.21
2018-02-02T03:57:58.959Z,989.25
2018-02-02T03:59:09.014Z,989.22
2018-02-02T04:00:18.794Z,989.17
2018-02-02T04:01:28.842Z,989.16
2018-02-02T04:02:38.894Z,989.19
2018-02-02T04:03:48.738Z,989.2
2018-02-02T04:04:58.781Z,989.22
2018-02-02T04:06:08.565Z,989.26
2018-02-02T04:07:18.352Z,989.33
2018-02-02T04:08:28.139Z,989.31
2018-02-02T04:09:38.179Z,989.37
2018-02-02T04:10:48.257Z,989.31
2018-02-02T04:11:58.305Z,989.33
2018-02-02T04:13:08.365Z,989.33
2018-02-02T04:14:18.430Z,989.33
2018-02-02T04:15:28.495Z,989.37
2018-02-02T04:16:38.547Z,989.35
2018-02-02T04:17:48.346Z,989.4
2018-02-02T04:18:58.412Z,989.39
2018-02-02T04:20:08.478Z,989.42
2018-02-02T04:21:18.583Z,989.44
2018-02-02T04:22:28.668Z,989.39
2018-02-02T04:23:38.192Z,989.35
2018-02-02T04:24:48.756Z,989.36
2018-02-02T04:25:58.995Z,989.36
2018-02-02T04:27:08.874Z,989.35
2018-02-02T04:28:18.914Z,989.37
2018-02-02T04:29:28.702Z,989.4
2018-02-02T04:30:38.745Z,989.42
2018-02-02T04:31:48.792Z,989.39
2018-02-02T04:32:58.846Z,989.42
2018-02-02T04:34:08.897Z,989.41
2018-02-02T04:35:19.170Z,989.41
2018-02-02T04:36:29.213Z,989.41
2018-02-02T04:37:39.257Z,989.38
2018-02-02T04:38:49.306Z,989.42
2018-02-02T04:39:59.370Z,989.38
2018-02-02T04:41:09.154Z,989.35
2018-02-02T04:42:19.237Z,989.32
2018-02-02T04:43:29.282Z,989.34
2018-02-02T04:44:39.122Z,989.36
2018-02-02T04:45:49.166Z,989.35
2018-02-02T04:46:59.207Z,989.37
2018-02-02T04:48:08.980Z,989.43
2018-02-02T04:49:19.026Z,989.45
2018-02-02T04:50:28.564Z,989.42
2018-02-02T04:51:38.352Z,989.46
2018-02-02T04:52:48.411Z,989.45
2018-02-02T04:53:58.448Z,989.45
2018-02-02T04:55:07.995Z,989.47
2018-02-02T04:56:18.037Z,989.48
2018-02-02T04:57:27.813Z,989.49
2018-02-02T04:58:37.864Z,989.52
2018-02-02T04:59:47.907Z,989.46
2018-02-02T05:00:57.435Z,989.45
2018-02-02T05:02:07.486Z,989.47
2018-02-02T05:03:17.522Z,989.43
2018-02-02T05:04:27.310Z,989.43
2018-02-02T05:05:37.098Z,989.44
2018-02-02T05:06:46.902Z,989.43
2018-02-02T05:07:57.178Z,989.46
2018-02-02T05:09:07.213Z,989.48
2018-02-02T05:10:16.999Z,989.44
2018-02-02T05:11:27.041Z,989.48
2018-02-02T05:12:37.090Z,989.53
2018-02-02T05:13:46.943Z,989.51
2018-02-02T05:14:56.474Z,989.62
2018-02-02T05:16:06.272Z,989.57
2018-02-02T05:17:15.784Z,989.59
2018-02-02T05:18:25.827Z,989.58
2018-02-02T05:19:35.628Z,989.56
2018-02-02T05:20:45.666Z,989.63
2018-02-02T05:21:55.729Z,989.61
2018-02-02T05:23:05.792Z,989.61
2018-02-02T05:24:15.848Z,989.55
2018-02-02T05:25:25.901Z,989.59
2018-02-02T05:26:35.697Z,989.55
2018-02-02T05:27:45.218Z,989.56
2018-02-02T05:28:55.252Z,989.57
2018-02-02T05:30:05.051Z,989.55
2018-02-02T05:31:15.113Z,989.56
2018-02-02T05:32:24.914Z,989.52
2018-02-02T05:33:34.968Z,989.47
2018-02-02T05:34:45.009Z,989.49
2018-02-02T05:35:54.552Z,989.47
2018-02-02T05:37:04.598Z,989.48
2018-02-02T05:38:14.696Z,989.42
2018-02-02T05:39:24.258Z,989.52
2018-02-02T05:40:34.298Z,989.47
2018-02-02T05:41:44.120Z,989.48
2018-02-02T05:42:53.918Z,989.53
2018-02-02T05:44:03.973Z,989.49
2018-02-02T05:45:13.756Z,989.53
2018-02-02T05:46:23.550Z,989.51
2018-02-02T05:47:33.343Z,989.54
2018-02-02T05:48:43.386Z,989.52
2018-02-02T05:49:53.454Z,989.53
2018-02-02T05:51:03.493Z,989.51
2018-02-02T05:52:13.548Z,989.55
2018-02-02T05:53:23.345Z,989.49
2018-02-02T05:54:33.389Z,989.51
2018-02-02T05:55:43.428Z,989.49
2018-02-02T05:56:53.497Z,989.48
2018-02-02T05:58:03.558Z,989.55
2018-02-02T05:59:13.623Z,989.54
2018-02-02T06:00:23.814Z,989.55
2018-02-02T06:01:33.870Z,989.58
2018-02-02T06:02:43.927Z,989.63
2018-02-02T06:03:53.484Z,989.67
2018-02-02T06:05:03.535Z,989.63
2018-02-02T06:06:13.588Z,989.67
2018-02-02T06:07:23.378Z,989.63
2018-02-02T06:08:33.446Z,989.61
2018-02-02T06:09:42.964Z,989.64
2018-02-02T06:10:52.786Z,989.66
2018-02-02T06:12:02.572Z,989.62
2018-02-02T06:13:12.627Z,989.63
2018-02-02T06:14:22.686Z,989.63
2018-02-02T06:15:32.217Z,989.63
2018-02-02T06:16:42.250Z,989.62
2018-02-02T06:17:52.345Z,989.58
2018-02-02T06:19:02.390Z,989.55
2018-02-02T06:20:12.443Z,989.55
2018-02-02T06:21:22.224Z,989.58
2018-02-02T06:22:32.014Z,989.56
2018-02-02T06:23:42.060Z,989.56
2018-02-02T06:24:52.101Z,989.56
2018-02-02T06:26:01.897Z,989.56
2018-02-02T06:27:11.978Z,989.55
2018-02-02T06:28:22.023Z,989.6
2018-02-02T06:29:32.073Z,989.61
2018-02-02T06:30:42.125Z,989.61
2018-02-02T06:31:51.919Z,989.59
2018-02-02T06:33:01.968Z,989.58
2018-02-02T06:34:12.027Z,989.6
2018-02-02T06:35:22.232Z,989.59
2018-02-02T06:36:32.038Z,989.6
2018-02-02T06:37:41.814Z,989.62
2018-02-02T06:38:51.862Z,989.6
2018-02-02T06:40:01.918Z,989.64
2018-02-02T06:41:11.961Z,989.62
2018-02-02T06:42:22.007Z,989.66
2018-02-02T06:43:32.077Z,989.68
2018-02-02T06:44:42.116Z,989.62
2018-02-02T06:45:52.166Z,989.66
2018-02-02T06:47:02.214Z,989.71
2018-02-02T06:48:12.290Z,989.7
2018-02-02T06:49:22.346Z,989.74
2018-02-02T06:50:32.144Z,989.75
2018-02-02T06:51:41.943Z,989.77
2018-02-02T06:52:51.746Z,989.79
2018-02-02T06:54:01.794Z,989.84
2018-02-02T06:55:11.599Z,989.87
2018-02-02T06:56:21.652Z,989.88
2018-02-02T06:57:31.484Z,989.89
2018-02-02T06:58:41.796Z,989.9
2018-02-02T06:59:51.845Z,989.93
2018-02-02T07:01:01.633Z,989.89
2018-02-02T07:02:11.677Z,989.9
2018-02-02T07:03:21.727Z,989.88
2018-02-02T07:04:31.586Z,989.88
2018-02-02T07:05:41.437Z,989.87
2018-02-02T07:06:51.482Z,989.92
2018-02-02T07:08:02.366Z,989.97
2018-02-02T07:09:12.171Z,989.93
2018-02-02T07:10:22.296Z,989.94
2018-02-02T07:11:32.333Z,989.94
2018-02-02T07:12:42.379Z,989.96
2018-02-02T07:13:52.435Z,989.91
2018-02-02T07:15:02.505Z,989.92
2018-02-02T07:16:12.616Z,989.95
2018-02-02T07:17:22.665Z,989.96
2018-02-02T07:18:32.727Z,989.97
2018-02-02T07:19:42.769Z,989.94
2018-02-02T07:20:52.551Z,989.95
2018-02-02T07:22:02.602Z,989.91
2018-02-02T07:23:12.669Z,989.95
2018-02-02T07:24:22.465Z,989.95
2018-02-02T07:25:32.277Z,989.94
2018-02-02T07:26:42.311Z,989.97
2018-02-02T07:27:52.380Z,989.96
2018-02-02T07:29:02.435Z,989.98
2018-02-02T07:30:12.500Z,989.98
2018-02-02T07:31:22.285Z,989.99
2018-02-02T07:32:32.332Z,989.95
2018-02-02T07:33:42.431Z,989.94
2018-02-02T07:34:52.217Z,989.94
2018-02-02T07:36:02.017Z,989.95
2018-02-02T07:37:12.072Z,989.98
2018-02-02T07:38:22.171Z,989.97
2018-02-02T07:39:32.363Z,989.97
2018-02-02T07:40:42.416Z,989.96
2018-02-02T07:41:52.199Z,989.99
2018-02-02T07:43:02.280Z,989.96
2018-02-02T07:44:12.721Z,989.97
2018-02-02T07:45:22.766Z,989.97
2018-02-02T07:46:32.832Z,989.94
2018-02-02T07:47:42.874Z,989.92
2018-02-02T07:48:52.929Z,989.96
2018-02-02T07:50:03.502Z,989.98
2018-02-02T07:51:13.598Z,989.96
2018-02-02T07:52:23.428Z,989.99
2018-02-02T07:53:33.243Z,990.02
2018-02-02T07:54:43.286Z,989.99
2018-02-02T07:55:53.352Z,990.02
2018-02-02T07:57:03.412Z,990.01
2018-02-02T07:58:13.473Z,990
2018-02-02T07:59:23.552Z,990
2018-02-02T08:00:33.599Z,989.96
2018-02-02T08:01:43.387Z,989.96
2018-02-02T08:02:53.038Z,989.94
2018-02-02T08:04:02.852Z,989.96
2018-02-02T08:05:12.940Z,989.95
2018-02-02T08:06:23.055Z,989.96
2018-02-02T08:07:33.155Z,989.94
2018-02-02T08:08:42.956Z,989.93
2018-02-02T08:09:53.009Z,989.92
2018-02-02T08:11:03.066Z,989.9
2018-02-02T08:12:13.109Z,989.92
2018-02-02T08:13:22.900Z,989.88
2018-02-02T08:14:32.950Z,989.93
2018-02-02T08:15:42.997Z,989.92
2018-02-02T08:16:52.524Z,989.95
2018-02-02T08:18:02.585Z,989.99
2018-02-02T08:19:12.632Z,989.99
2018-02-02T08:20:22.681Z,989.99
2018-02-02T08:21:32.773Z,989.98
2018-02-02T08:22:42.824Z,989.99
2018-02-02T08:23:52.880Z,989.93
2018-02-02T08:25:02.962Z,989.96
2018-02-02T08:26:13.009Z,989.98
2018-02-02T08:27:23.049Z,989.97
2018-02-02T08:28:32.586Z,989.96
2018-02-02T08:29:42.643Z,989.99
2018-02-02T08:30:52.705Z,989.99
2018-02-02T08:32:02.493Z,990.02
2018-02-02T08:33:12.538Z,989.99
2018-02-02T08:34:22.591Z,989.93
2018-02-02T08:35:32.649Z,989.96
2018-02-02T08:36:42.703Z,989.95
2018-02-02T08:37:52.741Z,989.89
2018-02-02T08:39:02.793Z,989.88
2018-02-02T08:40:12.599Z,989.89
2018-02-02T08:41:22.389Z,989.88
2018-02-02T08:42:32.442Z,989.86
2018-02-02T08:43:42.751Z,989.87
2018-02-02T08:44:52.821Z,989.87
2018-02-02T08:46:02.632Z,989.87
2018-02-02T08:47:12.408Z,989.89
2018-02-02T08:48:22.452Z,989.88
2018-02-02T08:49:32.258Z,989.89
2018-02-02T08:50:42.363Z,989.88
2018-02-02T08:51:52.166Z,989.91
2018-02-02T08:53:01.974Z,989.87
2018-02-02T08:54:12.035Z,989.85
2018-02-02T08:55:22.185Z,989.84
2018-02-02T08:56:32.244Z,989.84
2018-02-02T08:57:42.305Z,989.84
2018-02-02T08:58:52.337Z,989.88
2018-02-02T09:00:02.376Z,989.91
2018-02-02T09:01:12.441Z,989.92
2018-02-02T09:02:22.498Z,989.88
2018-02-02T09:03:32.272Z,989.92
2018-02-02T09:04:42.047Z,989.91
2018-02-02T09:05:52.095Z,989.85
2018-02-02T09:07:02.334Z,989.92
2018-02-02T09:08:12.141Z,989.91
2018-02-02T09:09:22.188Z,989.89
2018-02-02T09:10:31.968Z,989.91
2018-02-02T09:11:42.029Z,989.92
2018-02-02T09:12:52.096Z,989.88
2018-02-02T09:14:02.203Z,989.93
2018-02-02T09:15:12.242Z,989.94
2018-02-02T09:16:22.032Z,989.89
2018-02-02T09:17:32.100Z,989.91
2018-02-02T09:18:42.154Z,989.89
2018-02-02T09:19:52.218Z,989.9
2018-02-02T09:21:02.269Z,989.88
2018-02-02T09:22:12.313Z,989.89
2018-02-02T09:23:22.373Z,989.94
2018-02-02T09:24:32.420Z,989.95
2018-02-02T09:25:42.199Z,989.96
2018-02-02T09:26:52.251Z,989.98
2018-02-02T09:28:02.323Z,989.96
2018-02-02T09:29:12.383Z,990.01
2018-02-02T09:30:22.265Z,990
2018-02-02T09:31:32.320Z,989.97
2018-02-02T09:32:42.368Z,990.01
2018-02-02T09:33:51.961Z,989.98
2018-02-02T09:35:02.963Z,990.02
2018-02-02T09:36:12.763Z,989.97
2018-02-02T09:37:22.555Z,990.01
2018-02-02T09:38:32.609Z,989.99
2018-02-02T09:39:42.673Z,989.96
2018-02-02T09:40:52.715Z,989.99
2018-02-02T09:42:02.558Z,990.02
2018-02-02T09:43:12.623Z,990.03
2018-02-02T09:44:22.421Z,990
2018-02-02T09:45:32.465Z,989.99
2018-02-02T09:46:42.259Z,990.08
2018-02-02T09:47:52.328Z,990.07
2018-02-02T09:49:02.383Z,990.06
2018-02-02T09:50:12.169Z,990.1
2018-02-02T09:51:21.957Z,990.12
2018-02-02T09:52:31.489Z,990.1
2018-02-02T09:53:41.005Z,990.13
2018-02-02T09:54:51.039Z,990.1
2018-02-02T09:56:00.835Z,990.11
2018-02-02T09:57:10.685Z,990.1
2018-02-02T09:58:20.733Z,990.1
2018-02-02T09:59:30.849Z,990.05
2018-02-02T10:00:40.942Z,990.04
2018-02-02T10:01:51.004Z,990.09
2018-02-02T10:03:01.064Z,990.02
2018-02-02T10:04:11.117Z,990.03
2018-02-02T10:05:20.918Z,990.03
2018-02-02T10:06:30.972Z,989.98
2018-02-02T10:07:40.781Z,989.99
2018-02-02T10:08:50.567Z,989.97
2018-02-02T10:10:00.605Z,989.93
2018-02-02T10:11:10.702Z,989.92
2018-02-02T10:12:20.498Z,989.96
2018-02-02T10:13:30.552Z,989.95
2018-02-02T10:14:40.631Z,989.92
2018-02-02T10:15:50.689Z,989.87
2018-02-02T10:17:00.738Z,989.9
2018-02-02T10:18:10.776Z,989.86
2018-02-02T10:19:20.564Z,989.87
2018-02-02T10:20:30.752Z,989.84
2018-02-02T10:21:40.813Z,989.81
2018-02-02T10:22:50.912Z,989.79
2018-02-02T10:24:01.353Z,989.75
2018-02-02T10:25:11.395Z,989.72
2018-02-02T10:26:21.444Z,989.69
2018-02-02T10:27:31.246Z,989.68
2018-02-02T10:28:41.049Z,989.65
2018-02-02T10:29:50.857Z,989.66
2018-02-02T10:31:00.958Z,989.7
2018-02-02T10:32:11.023Z,989.73
2018-02-02T10:33:21.089Z,989.69
2018-02-02T10:34:31.142Z,989.72
2018-02-02T10:35:41.188Z,989.69
2018-02-02T10:36:51.249Z,989.72
2018-02-02T10:38:01.287Z,989.76
2018-02-02T10:39:11.065Z,989.8
2018-02-02T10:40:20.925Z,989.78
2018-02-02T10:41:30.991Z,989.76
2018-02-02T10:42:40.788Z,989.74
2018-02-02T10:43:50.598Z,989.76
2018-02-02T10:45:00.390Z,989.72
2018-02-02T10:46:10.450Z,989.73
2018-02-02T10:47:20.231Z,989.75
2018-02-02T10:48:30.046Z,989.77
2018-02-02T10:49:40.085Z,989.77
2018-02-02T10:50:49.862Z,989.8
2018-02-02T10:51:59.705Z,989.8
2018-02-02T10:53:09.826Z,989.81
2018-02-02T10:54:19.396Z,989.77
2018-02-02T10:55:29.193Z,989.74
2018-02-02T10:56:39.261Z,989.72
2018-02-02T10:57:49.039Z,989.71
2018-02-02T10:58:59.085Z,989.69
2018-02-02T11:00:09.132Z,989.64
2018-02-02T11:01:19.238Z,989.66
2018-02-02T11:02:29.300Z,989.68
2018-02-02T11:03:39.097Z,989.61
2018-02-02T11:04:49.163Z,989.65
2018-02-02T11:05:58.949Z,989.68
2018-02-02T11:07:09.023Z,989.69
2018-02-02T11:08:19.093Z,989.68
2018-02-02T11:09:28.894Z,989.68
2018-02-02T11:10:38.970Z,989.7
2018-02-02T11:11:49.088Z,989.7
2018-02-02T11:12:59.151Z,989.65
2018-02-02T11:14:09.209Z,989.66
2018-02-02T11:15:19.246Z,989.65
2018-02-02T11:16:29.028Z,989.67
2018-02-02T11:17:39.071Z,989.66
2018-02-02T11:18:49.102Z,989.69
2018-02-02T11:19:59.163Z,989.71
2018-02-02T11:21:09.211Z,989.66
2018-02-02T11:22:19.234Z,989.71
2018-02-02T11:23:29.366Z,989.7
2018-02-02T11:24:39.430Z,989.71
2018-02-02T11:25:49.479Z,989.68
2018-02-02T11:26:59.573Z,989.65
2018-02-02T11:28:09.640Z,989.64
2018-02-02T11:29:19.870Z,989.58
2018-02-02T11:30:29.466Z,989.59
2018-02-02T11:31:39.259Z,989.59
2018-02-02T11:32:49.310Z,989.62
2018-02-02T11:33:59.107Z,989.57
2018-02-02T11:35:09.162Z,989.55
2018-02-02T11:36:18.975Z,989.52
2018-02-02T11:37:29.031Z,989.53
2018-02-02T11:38:39.088Z,989.56
2018-02-02T11:39:48.877Z,989.52
2018-02-02T11:40:58.947Z,989.53
2018-02-02T11:42:08.737Z,989.53
2018-02-02T11:43:18.791Z,989.54
2018-02-02T11:44:28.897Z,989.55
2018-02-02T11:45:38.684Z,989.47
2018-02-02T11:46:48.766Z,989.51
2018-02-02T11:47:58.817Z,989.53
2018-02-02T11:49:08.864Z,989.48
2018-02-02T11:50:18.659Z,989.46
2018-02-02T11:51:28.703Z,989.46
2018-02-02T11:52:38.249Z,989.46
2018-02-02T11:53:48.310Z,989.5
2018-02-02T11:54:58.363Z,989.46
2018-02-02T11:56:08.476Z,989.45
2018-02-02T11:57:18.276Z,989.48
2018-02-02T11:58:28.340Z,989.49
2018-02-02T11:59:37.889Z,989.47
2018-02-02T12:00:47.953Z,989.49
2018-02-02T12:01:58.055Z,989.47
2018-02-02T12:03:08.100Z,989.53
2018-02-02T12:04:17.617Z,989.51
2018-02-02T12:05:27.665Z,989.53
2018-02-02T12:06:37.464Z,989.55
2018-02-02T12:07:47.684Z,989.52
2018-02-02T12:08:57.754Z,989.5
2018-02-02T12:10:07.817Z,989.5
2018-02-02T12:11:17.867Z,989.49
2018-02-02T12:12:27.652Z,989.47
2018-02-02T12:13:37.511Z,989.48
2018-02-02T12:14:47.567Z,989.47
2018-02-02T12:15:57.365Z,989.46
2018-02-02T12:17:07.406Z,989.48
2018-02-02T12:18:17.218Z,989.47
2018-02-02T12:19:27.320Z,989.48
2018-02-02T12:20:37.381Z,989.49
2018-02-02T12:21:47.179Z,989.49
2018-02-02T12:22:57.241Z,989.48
2018-02-02T12:24:07.327Z,989.46
2018-02-02T12:25:17.399Z,989.44
2018-02-02T12:26:27.205Z,989.44
2018-02-02T12:27:37.009Z,989.4
2018-02-02T12:28:47.044Z,989.41
2018-02-02T12:29:56.839Z,989.38
2018-02-02T12:31:06.898Z,989.42
2018-02-02T12:32:16.167Z,989.44
2018-02-02T12:33:26.230Z,989.38
2018-02-02T12:34:36.320Z,989.36
2018-02-02T12:35:46.400Z,989.39
2018-02-02T12:36:56.202Z,989.4
2018-02-02T12:38:05.989Z,989.39
2018-02-02T12:39:15.850Z,989.39
2018-02-02T12:40:25.658Z,989.37
2018-02-02T12:41:35.440Z,989.36
2018-02-02T12:42:45.502Z,989.35
2018-02-02T12:43:55.546Z,989.36
2018-02-02T12:45:05.604Z,989.38
2018-02-02T12:46:15.397Z,989.4
2018-02-02T12:47:25.464Z,989.41
2018-02-02T12:48:35.530Z,989.45
2018-02-02T12:49:45.580Z,989.42
2018-02-02T12:50:55.365Z,989.45
2018-02-02T12:52:05.516Z,989.46
2018-02-02T12:53:15.558Z,989.5
2018-02-02T12:54:25.624Z,989.46
2018-02-02T12:55:35.415Z,989.44
2018-02-02T12:56:45.226Z,989.41
2018-02-02T12:57:55.333Z,989.46
2018-02-02T12:59:05.385Z,989.43
2018-02-02T13:00:15.175Z,989.46
2018-02-02T13:01:24.704Z,989.45
2018-02-02T13:02:34.498Z,989.45
2018-02-02T13:03:44.537Z,989.48
2018-02-02T13:04:54.595Z,989.48
2018-02-02T13:06:04.646Z,989.52
2018-02-02T13:07:14.682Z,989.48
2018-02-02T13:08:24.518Z,989.5
2018-02-02T13:09:34.830Z,989.48
2018-02-02T13:10:44.381Z,989.45
2018-02-02T13:11:54.464Z,989.44
2018-02-02T13:13:04.537Z,989.44
2018-02-02T13:14:14.637Z,989.46
2018-02-02T13:15:24.703Z,989.47
2018-02-02T13:16:34.568Z,989.44
2018-02-02T13:17:44.656Z,989.4
2018-02-02T13:18:54.731Z,989.39
2018-02-02T13:20:04.798Z,989.37
2018-02-02T13:21:14.853Z,989.38
2018-02-02T13:22:24.915Z,989.34
2018-02-02T13:23:34.983Z,989.36
2018-02-02T13:24:44.543Z,989.32
2018-02-02T13:25:54.610Z,989.35
2018-02-02T13:27:04.667Z,989.37
2018-02-02T13:28:14.468Z,989.41
2018-02-02T13:29:24.546Z,989.39
2018-02-02T13:30:34.077Z,989.4
2018-02-02T13:31:44.129Z,989.38
2018-02-02T13:32:54.183Z,989.36
2018-02-02T13:34:04.284Z,989.36
2018-02-02T13:35:14.353Z,989.41
2018-02-02T13:36:24.436Z,989.37
2018-02-02T13:37:34.514Z,989.36
2018-02-02T13:38:44.557Z,989.28
2018-02-02T13:39:54.677Z,989.27
2018-02-02T13:41:04.497Z,989.24
2018-02-02T13:42:14.287Z,989.24
2018-02-02T13:43:24.069Z,989.22
2018-02-02T13:44:33.867Z,989.21
2018-02-02T13:45:43.925Z,989.2
2018-02-02T13:46:53.975Z,989.25
2018-02-02T13:48:03.778Z,989.24
2018-02-02T13:49:13.314Z,989.3
2018-02-02T13:50:23.372Z,989.31
2018-02-02T13:51:33.176Z,989.3
2018-02-02T13:52:43.244Z,989.27
2018-02-02T13:53:52.766Z,989.32
2018-02-02T13:55:02.901Z,989.29
2018-02-02T13:56:12.723Z,989.25
2018-02-02T13:57:22.279Z,989.25
2018-02-02T13:58:32.340Z,989.27
2018-02-02T13:59:42.408Z,989.25
2018-02-02T14:00:52.192Z,989.22
2018-02-02T14:02:02.237Z,989.26
2018-02-02T14:03:12.282Z,989.25
2018-02-02T14:04:22.358Z,989.25
2018-02-02T14:05:32.429Z,989.25
2018-02-02T14:06:42.496Z,989.23
2018-02-02T14:07:52.290Z,989.23
2018-02-02T14:09:01.841Z,989.25
2018-02-02T14:10:11.897Z,989.22
2018-02-02T14:11:21.966Z,989.25
2018-02-02T14:12:32.011Z,989.21
2018-02-02T14:13:41.803Z,989.2
2018-02-02T14:14:51.766Z,989.22
2018-02-02T14:16:01.810Z,989.21
2018-02-02T14:17:11.847Z,989.22
2018-02-02T14:18:21.901Z,989.2
2018-02-02T14:19:32.026Z,989.2
2018-02-02T14:20:41.846Z,989.17
2018-02-02T14:21:51.670Z,989.13
2018-02-02T14:23:01.501Z,989.1
2018-02-02T14:24:11.305Z,989.14
2018-02-02T14:25:21.374Z,989.13
2018-02-02T14:26:31.506Z,989.1
2018-02-02T14:27:41.298Z,989.13
2018-02-02T14:28:51.351Z,989.1
2018-02-02T14:30:01.402Z,989.1
2018-02-02T14:31:11.473Z,989.08
2018-02-02T14:32:21.533Z,989.07
2018-02-02T14:33:31.608Z,988.98
2018-02-02T14:34:41.645Z,988.99
2018-02-02T14:35:51.711Z,989.05
2018-02-02T14:37:01.250Z,989.1
2018-02-02T14:38:10.779Z,989.04
2018-02-02T14:39:20.839Z,989.04
2018-02-02T14:40:30.932Z,989.05
2018-02-02T14:41:41.006Z,989.04
2018-02-02T14:42:51.075Z,989.04
2018-02-02T14:44:01.197Z,989
2018-02-02T14:45:11.000Z,988.98
2018-02-02T14:46:21.062Z,988.95
2018-02-02T14:47:31.130Z,988.98
2018-02-02T14:48:41.184Z,988.94
2018-02-02T14:49:51.296Z,988.93
2018-02-02T14:51:01.409Z,988.92
2018-02-02T14:52:11.214Z,988.9
2018-02-02T14:53:21.268Z,988.89
2018-02-02T14:54:31.362Z,988.9
2018-02-02T14:55:41.444Z,988.88
2018-02-02T14:56:51.247Z,988.87
2018-02-02T14:58:01.325Z,988.89
2018-02-02T14:59:11.147Z,988.93
2018-02-02T15:00:21.210Z,988.96
2018-02-02T15:01:31.275Z,988.99
2018-02-02T15:02:41.348Z,989.03
2018-02-02T15:03:51.412Z,988.98
2018-02-02T15:05:00.964Z,988.97
2018-02-02T15:06:11.029Z,988.94
2018-02-02T15:07:20.916Z,988.96